createdAt,value
2018-02-16T00:00:23.508Z,14.17
2018-02-16T00:02:51.008Z,15.57
2018-02-16T00:05:18.482Z,15.77
2018-02-16T00:07:45.970Z,17.33
2018-02-16T00:10:13.439Z,17.37
2018-02-16T00:12:40.933Z,16.67
2018-02-16T00:15:08.401Z,17.27
2018-02-16T00:17:35.883Z,19.70
2018-02-16T00:20:03.351Z,17.53
2018-02-16T00:22:30.840Z,16.77
2018-02-16T00:24:58.312Z,17.67
2018-02-16T00:27:25.815Z,18.43
2018-02-16T00:29:53.322Z,18.73
2018-02-16T00:32:20.911Z,18.07
2018-02-16T00:34:48.370Z,20.53
2018-02-16T00:37:15.865Z,20.37
2018-02-16T00:39:43.337Z,21.20
2018-02-16T00:42:10.801Z,22.20
2018-02-16T00:44:38.290Z,21.33
2018-02-16T00:47:05.752Z,21.33
2018-02-16T00:49:33.240Z,20.23
2018-02-16T00:52:00.714Z,22.00
2018-02-16T00:54:28.210Z,21.73
2018-02-16T00:56:55.676Z,23.00
2018-02-16T00:59:23.174Z,23.77
2018-02-16T01:01:50.638Z,23.07
2018-02-16T01:04:18.124Z,23.03
2018-02-16T01:06:45.585Z,23.37
2018-02-16T01:09:13.067Z,22.47
2018-02-16T01:11:40.535Z,21.80
2018-02-16T01:14:08.019Z,24.17
2018-02-16T01:16:35.485Z,24.67
2018-02-16T01:19:03.411Z,25.13
2018-02-16T01:21:31.660Z,23.80
2018-02-16T01:23:59.183Z,22.43
2018-02-16T01:26:26.734Z,21.27
2018-02-16T01:28:54.264Z,20.37
2018-02-16T01:31:22.196Z,18.63
2018-02-16T01:33:49.675Z,17.67
2018-02-16T01:36:17.140Z,17.93
2018-02-16T01:38:45.496Z,17.00
2018-02-16T01:41:13.022Z,16.93
2018-02-16T01:43:40.518Z,16.63
2018-02-16T01:46:07.991Z,16.27
2018-02-16T01:48:35.706Z,18.80
2018-02-16T01:51:03.223Z,19.40
2018-02-16T01:53:30.761Z,19.23
2018-02-16T01:55:58.602Z,21.80
2018-02-16T01:58:26.114Z,22.50
2018-02-16T02:00:53.870Z,23.70
2018-02-16T02:03:21.406Z,26.13
2018-02-16T02:05:48.932Z,23.83
2018-02-16T02:08:16.398Z,24.83
2018-02-16T02:10:44.245Z,23.63
2018-02-16T02:13:12.515Z,24.17
2018-02-16T02:15:40.083Z,24.03
2018-02-16T02:18:07.775Z,24.63
2018-02-16T02:20:35.998Z,22.77
2018-02-16T02:23:03.527Z,21.17
2018-02-16T02:25:31.461Z,21.77
2018-02-16T02:27:59.859Z,21.13
2018-02-16T02:30:27.600Z,21.40
2018-02-16T02:32:55.064Z,19.80
2018-02-16T02:35:22.902Z,19.10
2018-02-16T02:37:50.947Z,19.30
2018-02-16T02:40:18.762Z,19.60
2018-02-16T02:42:46.224Z,19.40
2018-02-16T02:45:13.798Z,20.23
2018-02-16T02:47:41.529Z,18.13
2018-02-16T02:50:09.120Z,20.00
2018-02-16T02:52:36.631Z,21.37
2018-02-16T02:55:04.631Z,20.47
2018-02-16T02:57:33.618Z,20.93
2018-02-16T03:00:01.656Z,19.50
2018-02-16T03:02:29.167Z,19.33
2018-02-16T03:04:56.919Z,17.70
2018-02-16T03:07:24.419Z,16.87
2018-02-16T03:09:52.147Z,17.83
2018-02-16T03:12:19.731Z,16.17
2018-02-16T03:14:47.244Z,17.70
2018-02-16T03:17:15.655Z,16.83
2018-02-16T03:19:43.131Z,16.43
2018-02-16T03:22:10.844Z,16.30
2018-02-16T03:24:38.367Z,15.80
2018-02-16T03:27:06.137Z,15.77
2018-02-16T03:29:33.858Z,17.17
2018-02-16T03:32:03.778Z,18.90
2018-02-16T03:34:31.242Z,19.53
2018-02-16T03:36:58.783Z,24.67
2018-02-16T03:42:00.142Z,29.17
2018-02-16T03:44:27.648Z,27.53
2018-02-16T03:46:55.417Z,28.40
2018-02-16T03:49:23.405Z,27.97
2018-02-16T03:51:50.928Z,27.83
2018-02-16T03:54:18.775Z,25.73
2018-02-16T03:56:46.277Z,22.37
2018-02-16T03:59:13.828Z,20.40
2018-02-16T04:01:41.286Z,20.23
2018-02-16T04:04:09.172Z,18.73
2018-02-16T04:06:36.887Z,18.83
2018-02-16T04:09:04.348Z,18.97
2018-02-16T04:11:32.825Z,18.90
2018-02-16T04:14:00.344Z,18.37
2018-02-16T04:16:28.930Z,21.97
2018-02-16T04:18:56.887Z,24.57
2018-02-16T04:21:24.751Z,27.57
2018-02-16T04:23:52.450Z,27.37
2018-02-16T04:26:19.942Z,26.00
2018-02-16T04:28:47.711Z,23.90
2018-02-16T04:31:15.202Z,22.70
2018-02-16T04:33:42.702Z,24.20
2018-02-16T04:36:10.214Z,25.07
2018-02-16T04:38:44.365Z,22.97
2018-02-16T04:41:11.892Z,22.17
2018-02-16T04:43:39.566Z,21.40
2018-02-16T04:46:07.170Z,21.13
2018-02-16T04:48:34.732Z,20.27
2018-02-16T04:51:02.337Z,20.13
2018-02-16T04:53:29.912Z,19.13
2018-02-16T04:55:57.485Z,20.77
2018-02-16T04:58:25.045Z,19.83
2018-02-16T05:00:52.619Z,25.07
2018-02-16T05:03:20.173Z,22.93
2018-02-16T05:05:47.750Z,24.53
2018-02-16T05:08:15.321Z,22.50
2018-02-16T05:10:42.865Z,20.70
2018-02-16T05:13:10.426Z,19.90
2018-02-16T05:15:37.967Z,21.57
2018-02-16T05:18:05.548Z,23.67
2018-02-16T05:20:33.040Z,22.13
2018-02-16T05:23:00.607Z,22.10
2018-02-16T05:25:28.171Z,23.13
2018-02-16T05:27:55.731Z,24.07
2018-02-16T05:30:23.263Z,20.97
2018-02-16T05:32:50.848Z,20.97
2018-02-16T05:35:18.407Z,20.20
2018-02-16T05:37:45.965Z,21.20
2018-02-16T05:40:13.557Z,23.60
2018-02-16T05:42:41.145Z,24.77
2018-02-16T05:45:08.666Z,25.50
2018-02-16T05:47:36.218Z,21.60
2018-02-16T05:50:03.753Z,22.07
2018-02-16T05:52:31.305Z,23.40
2018-02-16T05:54:58.825Z,25.43
2018-02-16T05:57:26.409Z,23.23
2018-02-16T05:59:53.970Z,22.13
2018-02-16T06:02:21.494Z,22.03
2018-02-16T06:04:48.978Z,20.73
2018-02-16T06:07:16.642Z,17.53
2018-02-16T06:09:44.159Z,18.83
2018-02-16T06:12:11.686Z,19.50
2018-02-16T06:14:39.175Z,20.97
2018-02-16T06:17:06.727Z,24.37
2018-02-16T06:19:34.219Z,20.63
2018-02-16T06:22:01.802Z,20.10
2018-02-16T06:24:29.324Z,19.50
2018-02-16T06:26:56.874Z,20.63
2018-02-16T06:29:24.631Z,19.30
2018-02-16T06:31:52.204Z,18.53
2018-02-16T06:34:19.781Z,20.00
2018-02-16T06:36:47.332Z,20.30
2018-02-16T06:39:14.867Z,19.37
2018-02-16T06:41:42.400Z,20.17
2018-02-16T06:44:09.996Z,17.43
2018-02-16T06:46:37.521Z,18.43
2018-02-16T06:49:05.076Z,21.00
2018-02-16T06:51:32.587Z,23.27
2018-02-16T06:54:00.144Z,24.37
2018-02-16T06:56:27.680Z,21.20
2018-02-16T06:58:55.736Z,19.43
2018-02-16T07:01:23.256Z,17.20
2018-02-16T07:03:50.803Z,19.63
2018-02-16T07:06:18.331Z,17.40
2018-02-16T07:08:45.897Z,16.23
2018-02-16T07:11:13.509Z,16.10
2018-02-16T07:13:41.066Z,16.40
2018-02-16T07:16:08.611Z,15.53
2018-02-16T07:18:36.188Z,14.83
2018-02-16T07:21:03.687Z,15.50
2018-02-16T07:23:31.267Z,16.27
2018-02-16T07:25:58.763Z,16.10
2018-02-16T07:28:26.314Z,17.00
2018-02-16T07:30:53.816Z,17.53
2018-02-16T07:33:21.331Z,17.10
2018-02-16T07:35:48.937Z,16.33
2018-02-16T07:38:16.518Z,14.60
2018-02-16T07:40:44.103Z,13.27
2018-02-16T07:43:11.770Z,12.47
2018-02-16T07:45:39.280Z,11.20
2018-02-16T07:48:06.847Z,11.20
2018-02-16T07:50:34.406Z,9.97
2018-02-16T07:53:01.991Z,10.27
2018-02-16T07:55:29.565Z,10.17
2018-02-16T07:57:57.106Z,11.57
2018-02-16T08:00:24.623Z,8.53
2018-02-16T08:02:52.166Z,12.27
2018-02-16T08:05:19.704Z,11.83
2018-02-16T08:07:47.250Z,10.63
2018-02-16T08:10:14.820Z,13.47
2018-02-16T08:12:42.324Z,11.23
2018-02-16T08:15:09.882Z,12.10
2018-02-16T08:17:37.374Z,9.10
2018-02-16T08:20:04.914Z,9.90
2018-02-16T08:22:32.398Z,9.67
2018-02-16T08:25:00.060Z,8.63
2018-02-16T08:27:27.592Z,7.60
2018-02-16T08:29:55.130Z,9.13
2018-02-16T08:32:22.640Z,8.97
2018-02-16T08:37:45.047Z,7.90
2018-02-16T08:40:12.721Z,9.20
2018-02-16T08:42:40.338Z,8.60
2018-02-16T08:48:00.635Z,5.60
2018-02-16T08:50:28.192Z,6.90
2018-02-16T08:52:55.698Z,6.43
2018-02-16T08:55:23.308Z,6.63
2018-02-16T08:57:50.942Z,5.93
2018-02-16T09:00:18.463Z,6.50
2018-02-16T09:02:45.930Z,5.80
2018-02-16T09:05:13.443Z,5.73
2018-02-16T09:07:41.004Z,5.47
2018-02-16T09:10:08.576Z,5.20
2018-02-16T09:12:36.067Z,5.67
2018-02-16T09:15:03.633Z,6.13
2018-02-16T09:17:31.196Z,6.17
2018-02-16T09:22:59.275Z,6.43
2018-02-16T09:25:26.866Z,6.07
2018-02-16T09:27:54.361Z,6.10
2018-02-16T09:30:22.027Z,5.83
2018-02-16T09:32:49.531Z,5.77
2018-02-16T09:35:17.089Z,6.00
2018-02-16T09:37:44.787Z,6.27
2018-02-16T09:40:12.308Z,5.03
2018-02-16T09:42:39.800Z,5.97
2018-02-16T09:45:07.291Z,6.30
2018-02-16T09:47:35.021Z,4.80
2018-02-16T09:50:02.557Z,5.13
2018-02-16T09:52:30.174Z,4.60
2018-02-16T09:55:00.499Z,4.93
2018-02-16T09:57:28.081Z,4.30
2018-02-16T09:59:55.657Z,4.60
2018-02-16T10:02:23.160Z,3.87
2018-02-16T10:04:50.670Z,4.63
2018-02-16T10:07:18.147Z,5.67
2018-02-16T10:09:45.696Z,4.83
2018-02-16T10:12:13.323Z,4.27
2018-02-16T10:14:40.899Z,4.80
2018-02-16T10:17:08.489Z,5.10
2018-02-16T10:19:35.977Z,4.60
2018-02-16T10:22:03.552Z,4.30
2018-02-16T10:24:31.074Z,4.60
2018-02-16T10:26:58.577Z,6.00
2018-02-16T10:29:26.111Z,5.07
2018-02-16T10:31:53.599Z,6.50
2018-02-16T10:34:21.119Z,4.27
2018-02-16T10:36:48.636Z,5.60
2018-02-16T10:39:16.201Z,5.53
2018-02-16T10:41:43.727Z,5.47
2018-02-16T10:44:11.247Z,4.60
2018-02-16T10:46:38.774Z,4.40
2018-02-16T10:49:06.277Z,4.70
2018-02-16T10:51:33.788Z,5.57
2018-02-16T10:54:01.330Z,4.63
2018-02-16T10:56:29.231Z,5.23
2018-02-16T10:58:56.803Z,4.70
2018-02-16T11:01:24.339Z,4.13
2018-02-16T11:04:00.101Z,4.37
2018-02-16T11:06:33.148Z,4.70
2018-02-16T11:09:06.295Z,4.77
2018-02-16T11:11:33.877Z,3.93
2018-02-16T11:14:01.371Z,4.93
2018-02-16T11:16:29.400Z,4.47
2018-02-16T11:18:56.961Z,3.87
2018-02-16T11:21:24.515Z,5.47
2018-02-16T11:23:52.089Z,8.70
2018-02-16T11:26:19.588Z,5.57
2018-02-16T11:28:47.130Z,4.40
2018-02-16T11:31:14.683Z,4.57
2018-02-16T11:33:42.214Z,5.27
2018-02-16T11:36:09.727Z,4.27
2018-02-16T11:38:37.359Z,4.67
2018-02-16T11:41:04.854Z,4.20
2018-02-16T11:43:32.371Z,4.60
2018-02-16T11:45:59.855Z,3.90
2018-02-16T11:48:39.766Z,3.50
2018-02-16T11:51:07.273Z,4.10
2018-02-16T11:53:34.827Z,6.10
2018-02-16T11:56:02.354Z,3.63
2018-02-16T11:58:29.882Z,4.03
2018-02-16T12:00:59.368Z,4.27
2018-02-16T12:03:26.919Z,5.40
2018-02-16T12:05:54.427Z,3.93
2018-02-16T12:08:21.941Z,4.20
2018-02-16T12:10:49.462Z,5.30
2018-02-16T12:13:29.835Z,5.10
2018-02-16T12:15:58.108Z,4.77
2018-02-16T12:18:26.962Z,3.90
2018-02-16T12:20:55.295Z,4.13
2018-02-16T12:23:23.705Z,3.80
2018-02-16T12:25:51.259Z,6.47
2018-02-16T12:28:18.831Z,4.07
2018-02-16T12:30:46.332Z,3.80
2018-02-16T12:33:13.843Z,4.27
2018-02-16T12:35:41.563Z,3.43
2018-02-16T12:38:09.138Z,3.50
2018-02-16T12:40:36.648Z,3.87
2018-02-16T12:43:04.200Z,4.00
2018-02-16T12:45:31.731Z,3.40
2018-02-16T12:47:59.292Z,3.30
2018-02-16T12:50:26.784Z,3.37
2018-02-16T12:52:54.368Z,3.63
2018-02-16T12:55:21.922Z,3.83
2018-02-16T12:57:49.529Z,3.20
2018-02-16T13:00:17.154Z,3.53
2018-02-16T13:02:57.011Z,3.30
2018-02-16T13:05:24.606Z,3.40
2018-02-16T13:07:52.180Z,3.33
2018-02-16T13:10:26.256Z,3.50
2018-02-16T13:12:53.771Z,3.77
2018-02-16T13:15:21.245Z,3.03
2018-02-16T13:17:48.738Z,3.47
2018-02-16T13:20:16.307Z,3.63
2018-02-16T13:22:44.236Z,3.20
2018-02-16T13:25:11.764Z,3.40
2018-02-16T13:27:39.323Z,3.57
2018-02-16T13:30:06.912Z,2.93
2018-02-16T13:32:34.454Z,3.07
2018-02-16T13:35:03.212Z,3.23
2018-02-16T13:37:30.736Z,3.07
2018-02-16T13:39:58.288Z,3.40
2018-02-16T13:42:25.922Z,3.93
2018-02-16T13:44:53.512Z,3.70
2018-02-16T13:47:21.051Z,3.33
2018-02-16T13:49:48.551Z,3.73
2018-02-16T13:52:16.023Z,3.40
2018-02-16T13:54:43.563Z,3.40
2018-02-16T13:57:11.552Z,4.03
2018-02-16T13:59:39.051Z,4.17
2018-02-16T14:02:06.703Z,3.33
2018-02-16T14:04:34.507Z,4.00
2018-02-16T14:07:02.100Z,3.40
2018-02-16T14:09:29.694Z,3.40
2018-02-16T14:11:57.228Z,3.37
2018-02-16T14:14:25.458Z,3.90
2018-02-16T14:16:52.970Z,4.23
2018-02-16T14:19:20.489Z,3.80
2018-02-16T14:21:48.007Z,3.60
2018-02-16T14:24:15.559Z,3.47
2018-02-16T14:26:43.146Z,3.53
2018-02-16T14:29:10.693Z,3.47
2018-02-16T14:31:38.247Z,3.50
2018-02-16T14:34:06.064Z,3.83
2018-02-16T14:39:06.802Z,3.63
2018-02-16T14:41:44.207Z,3.30
2018-02-16T14:44:12.880Z,3.63
2018-02-16T14:46:40.409Z,3.53
2018-02-16T14:49:09.809Z,3.77
2018-02-16T14:51:37.403Z,3.17
2018-02-16T14:54:04.918Z,3.60
2018-02-16T14:56:32.418Z,3.70
2018-02-16T14:58:59.968Z,3.43
2018-02-16T15:01:27.479Z,3.30
2018-02-16T15:03:55.024Z,3.10
2018-02-16T15:06:22.565Z,2.90
2018-02-16T15:08:50.063Z,3.37
2018-02-16T15:11:17.612Z,3.43
2018-02-16T15:13:45.185Z,3.47
2018-02-16T15:16:13.041Z,3.47
2018-02-16T15:18:40.543Z,3.47
2018-02-16T15:21:08.048Z,3.37
2018-02-16T15:23:35.588Z,3.80
2018-02-16T15:26:03.123Z,3.50
2018-02-16T15:28:30.840Z,4.07
2018-02-16T15:33:30.136Z,5.70
2018-02-16T15:35:57.730Z,10.20
2018-02-16T15:38:25.286Z,10.77
2018-02-16T15:41:11.507Z,6.93
2018-02-16T15:43:39.031Z,5.50
2018-02-16T15:48:38.182Z,4.33
2018-02-16T15:51:05.694Z,3.73
2018-02-16T15:53:33.239Z,6.93
2018-02-16T15:56:00.839Z,4.93
2018-02-16T15:58:28.346Z,4.93
2018-02-16T16:00:56.632Z,6.03
2018-02-16T16:03:24.106Z,4.60
2018-02-16T16:05:51.681Z,5.07
2018-02-16T16:08:19.219Z,4.93
2018-02-16T16:10:46.747Z,5.97
2018-02-16T16:13:14.238Z,4.63
2018-02-16T16:15:41.786Z,4.80
2018-02-16T16:18:09.354Z,5.53
2018-02-16T16:20:36.907Z,4.50
2018-02-16T16:23:04.727Z,4.07
2018-02-16T16:25:32.236Z,4.17
2018-02-16T16:27:59.787Z,3.83
2018-02-16T16:30:30.679Z,3.77
2018-02-16T16:33:00.233Z,3.67
2018-02-16T16:35:37.871Z,3.63
2018-02-16T16:38:05.352Z,3.90
2018-02-16T16:40:32.849Z,3.90
2018-02-16T16:43:00.426Z,3.67
2018-02-16T16:45:28.045Z,3.90
2018-02-16T16:47:55.533Z,3.87
2018-02-16T16:50:23.147Z,4.40
2018-02-16T16:52:50.636Z,4.27
2018-02-16T16:55:18.136Z,4.93
2018-02-16T16:57:45.623Z,5.33
2018-02-16T17:00:13.182Z,7.40
2018-02-16T17:02:40.827Z,8.23
2018-02-16T17:05:08.403Z,7.80
2018-02-16T17:07:36.063Z,7.90
2018-02-16T17:10:05.736Z,8.20
2018-02-16T17:12:33.380Z,8.60
2018-02-16T17:20:04.391Z,7.60
2018-02-16T17:22:32.016Z,7.40
2018-02-16T17:24:59.551Z,7.77
2018-02-16T17:27:27.063Z,7.97
2018-02-16T17:29:54.613Z,7.77
2018-02-16T17:32:22.174Z,6.67
2018-02-16T17:34:49.770Z,5.47
2018-02-16T17:37:17.287Z,5.40
2018-02-16T17:39:44.879Z,5.17
2018-02-16T17:42:18.402Z,5.60
2018-02-16T17:44:45.991Z,4.77
2018-02-16T17:47:13.562Z,4.50
2018-02-16T17:49:41.088Z,5.13
2018-02-16T17:52:08.939Z,4.33
2018-02-16T17:54:36.427Z,4.50
2018-02-16T17:57:03.930Z,4.47
2018-02-16T17:59:31.497Z,3.97
2018-02-16T18:01:59.163Z,4.33
2018-02-16T18:04:26.652Z,3.90
2018-02-16T18:06:54.183Z,4.03
2018-02-16T18:09:21.732Z,3.97
2018-02-16T18:11:49.258Z,4.33
2018-02-16T18:14:16.822Z,4.17
2018-02-16T18:16:44.340Z,4.00
2018-02-16T18:19:11.877Z,3.87
2018-02-16T18:21:39.530Z,4.40
2018-02-16T18:24:07.172Z,3.90
2018-02-16T18:26:34.707Z,5.00
2018-02-16T18:29:02.217Z,5.37
2018-02-16T18:31:29.817Z,5.40
2018-02-16T18:33:57.968Z,5.10
2018-02-16T18:36:25.468Z,4.73
2018-02-16T18:38:53.008Z,6.07
2018-02-16T18:41:20.578Z,6.63
2018-02-16T18:43:48.095Z,8.37
2018-02-16T18:46:15.680Z,8.40
2018-02-16T18:48:43.303Z,7.37
2018-02-16T18:51:10.856Z,7.00
2018-02-16T18:53:38.456Z,6.33
2018-02-16T18:56:06.078Z,5.60
2018-02-16T18:58:33.633Z,6.30
2018-02-16T19:01:01.136Z,4.53
2018-02-16T19:03:28.843Z,4.57
2018-02-16T19:05:56.442Z,6.03
2018-02-16T19:08:23.974Z,5.37
2018-02-16T19:10:51.529Z,5.40
2018-02-16T19:13:19.108Z,4.90
2018-02-16T19:15:46.713Z,6.00
2018-02-16T19:18:14.426Z,5.47
2018-02-16T19:20:42.379Z,5.23
2018-02-16T19:23:10.149Z,5.50
2018-02-16T19:25:38.538Z,5.67
2018-02-16T19:28:06.175Z,5.27
2018-02-16T19:30:33.703Z,5.33
2018-02-16T19:33:01.436Z,5.87
2018-02-16T19:35:28.952Z,5.67
2018-02-16T19:37:56.628Z,5.30
2018-02-16T19:40:24.174Z,5.80
2018-02-16T19:42:51.742Z,5.20
2018-02-16T19:45:19.705Z,5.50
2018-02-16T19:47:47.325Z,5.87
2018-02-16T19:50:14.880Z,5.90
2018-02-16T19:52:43.041Z,6.10
2018-02-16T19:55:11.126Z,5.90
2018-02-16T19:57:38.740Z,5.30
2018-02-16T20:00:06.223Z,6.93
2018-02-16T20:02:33.794Z,6.00
2018-02-16T20:05:01.577Z,7.93
2018-02-16T20:07:29.540Z,7.77
2018-02-16T20:09:57.193Z,7.77
2018-02-16T20:12:25.123Z,8.00
2018-02-16T20:14:53.107Z,6.70
2018-02-16T20:17:20.718Z,5.97
2018-02-16T20:19:48.215Z,6.60
2018-02-16T20:22:16.026Z,6.53
2018-02-16T20:24:44.061Z,6.20
2018-02-16T20:27:11.656Z,6.83
2018-02-16T20:29:39.262Z,6.97
2018-02-16T20:32:08.787Z,7.73
2018-02-16T20:34:36.357Z,7.33
2018-02-16T20:37:04.031Z,9.17
2018-02-16T20:39:31.642Z,9.27
2018-02-16T20:41:59.189Z,7.80
2018-02-16T20:44:26.800Z,8.77
2018-02-16T20:46:54.306Z,8.50
2018-02-16T20:49:21.900Z,8.23
2018-02-16T20:51:49.411Z,8.10
2018-02-16T20:54:16.939Z,8.07
2018-02-16T20:56:45.364Z,7.87
2018-02-16T20:59:13.002Z,7.90
2018-02-16T21:01:40.527Z,8.90
2018-02-16T21:04:08.131Z,9.50
2018-02-16T21:06:35.927Z,9.40
2018-02-16T21:09:03.497Z,7.83
2018-02-16T21:11:31.125Z,8.80
2018-02-16T21:13:58.674Z,9.40
2018-02-16T21:16:26.183Z,8.60
2018-02-16T21:18:53.693Z,8.57
2018-02-16T21:21:21.982Z,8.53
2018-02-16T21:23:49.694Z,8.83
2018-02-16T21:26:19.389Z,8.37
2018-02-16T21:28:46.919Z,8.80
2018-02-16T21:31:14.474Z,8.20
2018-02-16T21:33:42.079Z,8.53
2018-02-16T21:36:09.583Z,8.50
2018-02-16T21:38:37.103Z,8.77
2018-02-16T21:41:04.677Z,8.50
2018-02-16T21:43:32.232Z,7.80
2018-02-16T21:46:25.488Z,8.33
2018-02-16T21:48:53.035Z,8.30
2018-02-16T21:51:20.552Z,7.13
2018-02-16T21:53:48.032Z,7.50
2018-02-16T21:56:15.554Z,7.60
2018-02-16T21:58:43.127Z,6.87
2018-02-16T22:01:10.719Z,8.00
2018-02-16T22:03:38.220Z,7.53
2018-02-16T22:06:05.768Z,8.90
2018-02-16T22:08:33.367Z,8.57
2018-02-16T22:11:00.920Z,7.73
2018-02-16T22:13:28.419Z,8.40
2018-02-16T22:15:56.016Z,8.57
2018-02-16T22:18:23.514Z,8.13
2018-02-16T22:20:51.104Z,7.80
2018-02-16T22:23:18.683Z,8.63
2018-02-16T22:25:46.338Z,7.27
2018-02-16T22:28:13.851Z,7.93
2018-02-16T22:30:41.380Z,8.40
2018-02-16T22:33:08.872Z,8.10
2018-02-16T22:35:36.395Z,8.20
2018-02-16T22:38:03.877Z,8.73
2018-02-16T22:40:31.455Z,8.43
2018-02-16T22:42:58.951Z,8.13
2018-02-16T22:45:26.556Z,8.60
2018-02-16T22:47:54.068Z,8.53
2018-02-16T22:50:21.591Z,8.67
2018-02-16T22:52:49.178Z,8.17
2018-02-16T22:55:16.662Z,8.77
2018-02-16T22:57:44.140Z,8.33
2018-02-16T23:00:11.623Z,8.03
2018-02-16T23:02:39.097Z,8.20
2018-02-16T23:05:06.582Z,8.47
2018-02-16T23:07:34.051Z,8.33
2018-02-16T23:10:01.544Z,9.97
2018-02-16T23:12:29.023Z,8.80
2018-02-16T23:14:56.526Z,8.67
2018-02-16T23:17:24.094Z,9.87
2018-02-16T23:19:51.555Z,9.53
2018-02-16T23:22:19.040Z,8.50
2018-02-16T23:24:46.510Z,8.97
2018-02-16T23:27:13.995Z,8.90
2018-02-16T23:29:41.475Z,8.93
2018-02-16T23:32:08.965Z,7.90
2018-02-16T23:34:36.436Z,8.70
2018-02-16T23:37:03.921Z,10.07
2018-02-16T23:39:31.391Z,8.73
2018-02-16T23:41:58.904Z,8.73
2018-02-16T23:44:26.319Z,9.30
2018-02-16T23:46:53.815Z,9.60
2018-02-16T23:49:21.291Z,9.37
2018-02-16T23:51:48.788Z,9.47
2018-02-16T23:54:16.257Z,8.97
2018-02-16T23:56:43.755Z,9.23
2018-02-16T23:59:11.226Z,9.37
